createdAt,value
2022-09-04T00:00:46.657Z,14.37
2022-09-04T00:01:46.642Z,14.26
2022-09-04T00:02:46.647Z,14.37
2022-09-04T00:03:46.790Z,14.28
2022-09-04T00:04:46.798Z,14.26
2022-09-04T00:05:46.617Z,14.22
2022-09-04T00:06:46.621Z,14.22
2022-09-04T00:07:49.233Z,14.15
2022-09-04T00:08:46.610Z,14.12
2022-09-04T00:09:46.586Z,14.12
2022-09-04T00:10:46.586Z,14.11
2022-09-04T00:11:46.582Z,14.20
2022-09-04T00:12:46.562Z,14.07
2022-09-04T00:13:46.555Z,14.12
2022-09-04T00:14:46.548Z,14.08
2022-09-04T00:15:46.537Z,14.20
2022-09-04T00:16:46.591Z,14.08
2022-09-04T00:17:46.559Z,14.12
2022-09-04T00:18:46.537Z,14.11
2022-09-04T00:19:46.565Z,14.00
2022-09-04T00:20:46.508Z,14.03
2022-09-04T00:21:46.547Z,14.07
2022-09-04T00:22:46.604Z,14.03
2022-09-04T00:23:46.527Z,14.03
2022-09-04T00:24:46.540Z,13.96
2022-09-04T00:25:46.454Z,13.97
2022-09-04T00:26:46.449Z,13.86
2022-09-04T00:27:46.447Z,13.83
2022-09-04T00:28:46.437Z,13.93
2022-09-04T00:29:46.421Z,13.86
2022-09-04T00:31:46.578Z,13.81
2022-09-04T00:32:46.564Z,13.87
2022-09-04T00:33:46.559Z,13.87
2022-09-04T00:34:46.556Z,13.86
2022-09-04T00:35:46.544Z,13.79
2022-09-04T00:36:50.084Z,13.81
2022-09-04T00:37:46.534Z,13.87
2022-09-04T00:38:46.519Z,13.83
2022-09-04T00:39:46.576Z,13.93
2022-09-04T00:40:47.401Z,13.90
2022-09-04T00:41:46.491Z,13.87
2022-09-04T00:42:46.486Z,13.89
2022-09-04T00:43:46.478Z,13.87
2022-09-04T00:44:46.471Z,13.96
2022-09-04T00:45:46.542Z,13.95
2022-09-04T00:46:46.449Z,14.00
2022-09-04T00:47:46.438Z,14.04
2022-09-04T00:48:46.434Z,14.00
2022-09-04T00:49:46.422Z,14.04
2022-09-04T00:50:46.435Z,13.99
2022-09-04T00:51:46.415Z,13.99
2022-09-04T00:52:46.399Z,13.90
2022-09-04T00:53:47.491Z,13.93
2022-09-04T00:54:47.480Z,13.92
2022-09-04T00:55:47.476Z,13.81
2022-09-04T00:56:47.458Z,13.81
2022-09-04T00:57:47.463Z,13.72
2022-09-04T00:58:47.459Z,13.71
2022-09-04T00:59:47.437Z,13.62
2022-09-04T01:00:47.529Z,13.74
2022-09-04T01:01:47.531Z,13.56
2022-09-04T01:02:47.417Z,13.54
2022-09-04T01:03:48.412Z,13.63
2022-09-04T01:04:47.400Z,13.56
2022-09-04T01:05:47.396Z,13.65
2022-09-04T01:06:47.387Z,13.56
2022-09-04T01:07:47.379Z,13.44
2022-09-04T01:08:47.372Z,13.49
2022-09-04T01:09:47.354Z,13.44
2022-09-04T01:10:47.344Z,13.44
2022-09-04T01:11:47.338Z,13.42
2022-09-04T01:12:47.331Z,13.47
2022-09-04T01:13:47.331Z,13.30
2022-09-04T01:14:49.082Z,13.44
2022-09-04T01:15:48.320Z,13.42
2022-09-04T01:16:47.324Z,13.41
2022-09-04T01:17:47.286Z,13.30
2022-09-04T01:18:47.295Z,13.33
2022-09-04T01:19:47.354Z,13.37
2022-09-04T01:20:47.280Z,13.38
2022-09-04T01:21:47.254Z,13.38
2022-09-04T01:22:47.252Z,13.28
2022-09-04T01:23:47.254Z,13.30
2022-09-04T01:24:47.238Z,13.23
2022-09-04T01:25:47.233Z,13.25
2022-09-04T01:26:47.214Z,13.27
2022-09-04T01:27:47.221Z,13.19
2022-09-04T01:28:47.198Z,13.18
2022-09-04T01:29:47.192Z,13.12
2022-09-04T01:30:47.192Z,13.11
2022-09-04T01:31:47.216Z,13.04
2022-09-04T01:32:47.169Z,13.15
2022-09-04T01:33:48.160Z,13.01
2022-09-04T01:34:47.156Z,13.00
2022-09-04T01:35:47.147Z,12.90
2022-09-04T01:36:47.133Z,12.83
2022-09-04T01:37:47.142Z,12.91
2022-09-04T01:38:47.120Z,12.82
2022-09-04T01:39:47.178Z,12.78
2022-09-04T01:40:47.112Z,12.73
2022-09-04T01:41:47.096Z,12.65
2022-09-04T01:42:47.098Z,12.73
2022-09-04T01:43:47.078Z,12.73
2022-09-04T01:44:47.081Z,12.78
2022-09-04T01:45:47.113Z,12.61
2022-09-04T01:46:47.061Z,12.62
2022-09-04T01:47:47.066Z,12.58
2022-09-04T01:48:47.059Z,12.61
2022-09-04T01:49:47.037Z,12.54
2022-09-04T01:50:47.019Z,12.60
2022-09-04T01:51:47.012Z,12.55
2022-09-04T01:52:47.010Z,12.62
2022-09-04T01:53:47.004Z,12.58
2022-09-04T01:54:46.996Z,12.62
2022-09-04T01:55:46.982Z,12.72
2022-09-04T01:56:46.974Z,12.61
2022-09-04T01:57:46.979Z,12.70
2022-09-04T01:58:47.466Z,12.76
2022-09-04T01:59:49.699Z,12.68
2022-09-04T02:00:47.393Z,12.79
2022-09-04T02:01:46.990Z,12.75
2022-09-04T02:02:46.930Z,12.73
2022-09-04T02:03:47.923Z,12.67
2022-09-04T02:04:46.903Z,12.64
2022-09-04T02:05:46.910Z,12.62
2022-09-04T02:06:46.923Z,12.57
2022-09-04T02:07:46.891Z,12.60
2022-09-04T02:08:46.889Z,12.54
2022-09-04T02:09:47.549Z,12.62
2022-09-04T02:10:46.893Z,12.54
2022-09-04T02:11:46.849Z,12.50
2022-09-04T02:12:46.841Z,12.49
2022-09-04T02:13:46.850Z,12.53
2022-09-04T02:14:46.828Z,12.40
2022-09-04T02:15:46.835Z,12.35
2022-09-04T02:16:46.869Z,12.40
2022-09-04T02:17:46.813Z,12.40
2022-09-04T02:18:46.798Z,12.29
2022-09-04T02:19:46.792Z,12.29
2022-09-04T02:20:46.794Z,12.32
2022-09-04T02:21:46.791Z,12.40
2022-09-04T02:22:46.764Z,12.32
2022-09-04T02:23:46.762Z,12.31
2022-09-04T02:24:46.746Z,12.35
2022-09-04T02:25:46.743Z,12.37
2022-09-04T02:26:46.736Z,12.35
2022-09-04T02:27:46.735Z,12.28
2022-09-04T02:28:46.718Z,12.39
2022-09-04T02:29:46.717Z,12.21
2022-09-04T02:30:46.713Z,12.27
2022-09-04T02:31:47.800Z,12.28
2022-09-04T02:32:46.685Z,12.29
2022-09-04T02:33:46.679Z,12.35
2022-09-04T02:34:46.667Z,12.29
2022-09-04T02:35:46.672Z,12.29
2022-09-04T02:36:46.655Z,12.27
2022-09-04T02:37:46.656Z,12.31
2022-09-04T02:38:46.636Z,12.25
2022-09-04T02:39:46.675Z,12.27
2022-09-04T02:40:46.635Z,12.28
2022-09-04T02:41:46.630Z,12.32
2022-09-04T02:42:46.605Z,12.35
2022-09-04T02:43:46.596Z,12.27
2022-09-04T02:44:46.586Z,12.31
2022-09-04T02:45:46.582Z,12.32
2022-09-04T02:46:46.618Z,12.24
2022-09-04T02:47:46.564Z,12.20
2022-09-04T02:48:46.586Z,12.22
2022-09-04T02:49:46.546Z,12.28
2022-09-04T02:50:47.548Z,12.29
2022-09-04T02:51:46.543Z,12.27
2022-09-04T02:52:46.540Z,12.21
2022-09-04T02:53:46.529Z,12.25
2022-09-04T02:54:46.506Z,12.13
2022-09-04T02:55:46.500Z,12.17
2022-09-04T02:56:46.544Z,12.07
2022-09-04T02:57:46.482Z,12.04
2022-09-04T02:58:46.471Z,12.02
2022-09-04T02:59:46.462Z,11.94
2022-09-04T03:00:46.517Z,12.04
2022-09-04T03:01:49.787Z,12.02
2022-09-04T03:02:47.438Z,12.04
2022-09-04T03:03:46.433Z,11.99
2022-09-04T03:04:46.430Z,11.91
2022-09-04T03:05:46.413Z,11.91
2022-09-04T03:06:46.408Z,11.91
2022-09-04T03:07:46.462Z,11.91
2022-09-04T03:08:46.392Z,12.02
2022-09-04T03:09:46.381Z,11.90
2022-09-04T03:10:46.386Z,11.86
2022-09-04T03:11:46.372Z,11.95
2022-09-04T03:12:46.395Z,11.86
2022-09-04T03:13:46.625Z,11.95
2022-09-04T03:14:47.342Z,11.95
2022-09-04T03:15:46.340Z,11.86
2022-09-04T03:16:46.334Z,11.88
2022-09-04T03:17:46.329Z,11.78
2022-09-04T03:18:46.323Z,11.86
2022-09-04T03:19:46.316Z,11.88
2022-09-04T03:20:46.309Z,11.95
2022-09-04T03:21:46.292Z,11.78
2022-09-04T03:22:46.302Z,11.94
2022-09-04T03:23:46.271Z,11.90
2022-09-04T03:24:46.278Z,11.91
2022-09-04T03:25:46.251Z,11.94
2022-09-04T03:26:46.249Z,11.88
2022-09-04T03:27:46.249Z,11.94
2022-09-04T03:28:46.249Z,11.99
2022-09-04T03:29:46.223Z,11.91
2022-09-04T03:30:46.219Z,11.91
2022-09-04T03:31:46.296Z,12.03
2022-09-04T03:32:46.212Z,11.90
2022-09-04T03:33:46.186Z,11.90
2022-09-04T03:34:46.181Z,11.94
2022-09-04T03:35:46.171Z,11.87
2022-09-04T03:36:46.163Z,11.97
2022-09-04T03:37:46.175Z,11.91
2022-09-04T03:38:46.151Z,11.94
2022-09-04T03:39:46.178Z,11.87
2022-09-04T03:40:46.145Z,11.84
2022-09-04T03:41:46.121Z,11.81
2022-09-04T03:42:47.093Z,11.81
2022-09-04T03:43:46.113Z,11.78
2022-09-04T03:44:46.114Z,11.77
2022-09-04T03:45:46.090Z,11.77
2022-09-04T03:46:46.135Z,11.69
2022-09-04T03:47:46.088Z,11.62
2022-09-04T03:48:46.072Z,11.62
2022-09-04T03:49:46.092Z,11.68
2022-09-04T03:50:46.061Z,11.65
2022-09-04T03:51:46.067Z,11.60
2022-09-04T03:52:46.040Z,11.57
2022-09-04T03:53:46.027Z,11.63
2022-09-04T03:54:46.018Z,11.60
2022-09-04T03:55:46.014Z,11.66
2022-09-04T03:56:45.999Z,11.68
2022-09-04T03:57:46.001Z,11.68
2022-09-04T03:58:46.197Z,11.70
2022-09-04T03:59:45.972Z,11.68
2022-09-04T04:00:46.020Z,11.57
2022-09-04T04:01:45.964Z,11.69
2022-09-04T04:02:45.992Z,11.78
2022-09-04T04:03:45.936Z,11.77
2022-09-04T04:04:46.945Z,11.86
2022-09-04T04:05:48.276Z,11.80
2022-09-04T04:06:45.917Z,11.81
2022-09-04T04:07:45.907Z,11.78
2022-09-04T04:08:46.044Z,11.80
2022-09-04T04:09:45.905Z,11.84
2022-09-04T04:10:45.894Z,11.90
2022-09-04T04:11:45.875Z,11.80
2022-09-04T04:12:45.871Z,11.88
2022-09-04T04:13:45.862Z,11.84
2022-09-04T04:14:45.857Z,11.84
2022-09-04T04:15:45.867Z,11.97
2022-09-04T04:16:55.802Z,11.80
2022-09-04T04:17:46.822Z,11.91
2022-09-04T04:18:45.824Z,11.95
2022-09-04T04:19:45.807Z,11.95
2022-09-04T04:20:45.798Z,11.90
2022-09-04T04:21:45.815Z,11.84
2022-09-04T04:22:45.788Z,11.91
2022-09-04T04:23:45.776Z,11.87
2022-09-04T04:24:45.776Z,11.84
2022-09-04T04:25:46.261Z,11.88
2022-09-04T04:26:45.776Z,11.75
2022-09-04T04:27:45.748Z,11.80
2022-09-04T04:28:45.733Z,11.68
2022-09-04T04:29:45.734Z,11.70
2022-09-04T04:30:45.719Z,11.62
2022-09-04T04:31:46.616Z,11.55
2022-09-04T04:32:46.584Z,11.54
2022-09-04T04:33:45.710Z,11.44
2022-09-04T04:34:45.806Z,11.40
2022-09-04T04:35:45.677Z,11.36
2022-09-04T04:36:45.684Z,11.36
2022-09-04T04:37:45.669Z,11.35
2022-09-04T04:38:45.657Z,11.44
2022-09-04T04:39:45.717Z,11.37
2022-09-04T04:40:45.644Z,11.36
2022-09-04T04:41:45.638Z,11.40
2022-09-04T04:42:45.631Z,11.44
2022-09-04T04:43:45.622Z,11.37
2022-09-04T04:44:45.620Z,11.37
2022-09-04T04:45:45.617Z,11.36
2022-09-04T04:46:45.651Z,11.35
2022-09-04T04:47:45.594Z,11.33
2022-09-04T04:48:45.578Z,11.29
2022-09-04T04:49:45.588Z,11.32
2022-09-04T04:50:45.581Z,11.33
2022-09-04T04:51:45.558Z,11.32
2022-09-04T04:52:45.541Z,11.29
2022-09-04T04:53:45.537Z,11.35
2022-09-04T04:54:45.532Z,11.29
2022-09-04T04:55:45.531Z,11.40
2022-09-04T04:56:45.515Z,11.37
2022-09-04T04:57:45.528Z,11.43
2022-09-04T04:58:45.495Z,11.45
2022-09-04T04:59:45.490Z,11.40
2022-09-04T05:00:45.484Z,11.44
2022-09-04T05:01:45.566Z,11.37
2022-09-04T05:02:45.619Z,11.45
2022-09-04T05:03:45.457Z,11.52
2022-09-04T05:04:45.460Z,11.43
2022-09-04T05:05:45.444Z,11.43
2022-09-04T05:06:45.446Z,11.50
2022-09-04T05:07:45.435Z,11.45
2022-09-04T05:08:45.417Z,11.62
2022-09-04T05:09:45.413Z,11.54
2022-09-04T05:10:45.407Z,11.66
2022-09-04T05:11:45.465Z,11.69
2022-09-04T05:12:45.396Z,11.72
2022-09-04T05:13:45.374Z,11.77
2022-09-04T05:14:45.383Z,11.83
2022-09-04T05:16:05.437Z,11.90
2022-09-04T05:16:49.241Z,11.90
2022-09-04T05:17:45.348Z,12.07
2022-09-04T05:18:45.336Z,12.24
2022-09-04T05:19:45.343Z,12.22
2022-09-04T05:20:45.327Z,12.42
2022-09-04T05:21:45.307Z,12.46
2022-09-04T05:22:45.304Z,12.68
2022-09-04T05:23:45.292Z,12.70
2022-09-04T05:24:45.292Z,12.94
2022-09-04T05:25:45.281Z,12.93
2022-09-04T05:26:45.271Z,13.05
2022-09-04T05:27:45.264Z,13.12
2022-09-04T05:28:45.258Z,13.23
2022-09-04T05:29:45.252Z,13.47
2022-09-04T05:30:45.276Z,13.62
2022-09-04T05:31:45.236Z,13.70
2022-09-04T05:32:45.227Z,13.86
2022-09-04T05:33:45.215Z,14.05
2022-09-04T05:34:45.207Z,14.15
2022-09-04T05:35:45.208Z,14.17
2022-09-04T05:36:45.192Z,14.26
2022-09-04T05:37:45.184Z,14.48
2022-09-04T05:38:45.184Z,14.58
2022-09-04T05:39:45.209Z,14.81
2022-09-04T05:40:45.160Z,15.09
2022-09-04T05:41:45.149Z,15.11
2022-09-04T05:42:45.140Z,15.31
2022-09-04T05:43:45.140Z,15.64
2022-09-04T05:44:45.125Z,15.90
2022-09-04T05:45:45.125Z,15.97
2022-09-04T05:46:45.184Z,16.38
2022-09-04T05:47:45.099Z,16.58
2022-09-04T05:48:45.094Z,16.57
2022-09-04T05:49:45.090Z,16.75
2022-09-04T05:50:45.095Z,16.74
2022-09-04T05:51:45.099Z,16.72
2022-09-04T05:52:46.037Z,16.68
2022-09-04T05:53:45.059Z,16.84
2022-09-04T05:54:45.050Z,16.93
2022-09-04T05:55:45.048Z,17.09
2022-09-04T05:56:45.046Z,17.26
2022-09-04T05:57:45.028Z,17.38
2022-09-04T05:58:45.017Z,17.57
2022-09-04T05:59:45.006Z,17.70
2022-09-04T06:00:45.008Z,17.80
2022-09-04T06:01:48.544Z,17.86
2022-09-04T06:02:47.045Z,17.86
2022-09-04T06:03:44.977Z,17.83
2022-09-04T06:04:44.973Z,17.87
2022-09-04T06:05:44.959Z,17.98
2022-09-04T06:06:44.966Z,18.04
2022-09-04T06:07:44.944Z,18.31
2022-09-04T06:08:44.930Z,18.47
2022-09-04T06:09:44.925Z,18.66
2022-09-04T06:10:44.921Z,18.73
2022-09-04T06:11:44.911Z,18.81
2022-09-04T06:12:44.901Z,18.96
2022-09-04T06:13:44.891Z,19.18
2022-09-04T06:14:44.881Z,19.37
2022-09-04T06:15:44.925Z,19.55
2022-09-04T06:16:44.870Z,19.84
2022-09-04T06:17:44.871Z,20.00
2022-09-04T06:18:44.855Z,20.25
2022-09-04T06:19:44.851Z,20.36
2022-09-04T06:20:44.849Z,20.37
2022-09-04T06:21:44.832Z,20.34
2022-09-04T06:22:48.514Z,20.43
2022-09-04T06:23:44.813Z,20.51
2022-09-04T06:24:44.808Z,20.50
2022-09-04T06:25:44.809Z,20.65
2022-09-04T06:26:45.621Z,20.81
2022-09-04T06:27:44.783Z,21.06
2022-09-04T06:28:44.776Z,21.00
2022-09-04T06:29:44.763Z,21.11
2022-09-04T06:30:44.763Z,20.96
2022-09-04T06:31:44.746Z,20.72
2022-09-04T06:32:44.737Z,20.58
2022-09-04T06:33:44.743Z,20.75
2022-09-04T06:34:44.723Z,20.60
2022-09-04T06:35:45.620Z,20.47
2022-09-04T06:36:44.722Z,20.36
2022-09-04T06:37:44.705Z,20.29
2022-09-04T06:38:44.695Z,20.43
2022-09-04T06:39:44.739Z,20.24
2022-09-04T06:40:44.686Z,20.25
2022-09-04T06:41:44.682Z,20.31
2022-09-04T06:42:44.659Z,20.51
2022-09-04T06:43:44.652Z,20.87
2022-09-04T06:44:44.655Z,20.96
2022-09-04T06:45:44.646Z,20.96
2022-09-04T06:46:44.719Z,21.00
2022-09-04T06:47:44.625Z,21.05
2022-09-04T06:48:44.617Z,21.18
2022-09-04T06:49:44.613Z,21.21
2022-09-04T06:50:44.603Z,21.27
2022-09-04T06:51:44.589Z,21.14
2022-09-04T06:52:44.587Z,21.29
2022-09-04T06:53:44.574Z,21.09
2022-09-04T06:54:44.567Z,20.93
2022-09-04T06:55:44.563Z,21.06
2022-09-04T06:56:44.550Z,21.17
2022-09-04T06:57:44.546Z,21.40
2022-09-04T06:58:44.535Z,21.64
2022-09-04T06:59:44.524Z,21.55
2022-09-04T07:00:44.522Z,21.60
2022-09-04T07:01:44.657Z,21.77
2022-09-04T07:02:44.642Z,21.64
2022-09-04T07:03:44.492Z,21.54
2022-09-04T07:04:44.487Z,21.70
2022-09-04T07:05:44.480Z,21.67
2022-09-04T07:06:44.470Z,21.82
2022-09-04T07:07:44.468Z,21.99
2022-09-04T07:08:44.459Z,22.17
2022-09-04T07:09:44.444Z,22.20
2022-09-04T07:10:44.441Z,22.28
2022-09-04T07:11:44.435Z,22.35
2022-09-04T07:12:44.430Z,22.41
2022-09-04T07:13:44.426Z,22.45
2022-09-04T07:14:44.410Z,22.63
2022-09-04T07:15:44.468Z,22.70
2022-09-04T07:16:44.405Z,22.72
2022-09-04T07:17:44.379Z,22.63
2022-09-04T07:18:44.388Z,22.59
2022-09-04T07:19:44.365Z,22.68
2022-09-04T07:20:44.361Z,22.83
2022-09-04T07:21:44.355Z,22.98
2022-09-04T07:22:44.358Z,23.05
2022-09-04T07:23:44.332Z,23.20
2022-09-04T07:24:44.330Z,23.18
2022-09-04T07:25:44.318Z,23.03
2022-09-04T07:26:44.309Z,22.85
2022-09-04T07:27:44.316Z,22.69
2022-09-04T07:28:44.295Z,22.68
2022-09-04T07:29:44.292Z,22.78
2022-09-04T07:30:44.278Z,22.73
2022-09-04T07:31:44.333Z,22.68
2022-09-04T07:32:44.267Z,22.72
2022-09-04T07:33:45.253Z,22.66
2022-09-04T07:34:44.241Z,22.73
2022-09-04T07:35:44.241Z,22.76
2022-09-04T07:36:44.235Z,22.91
2022-09-04T07:37:44.217Z,23.02
2022-09-04T07:38:44.221Z,23.08
2022-09-04T07:39:45.236Z,23.39
2022-09-04T07:40:44.191Z,23.37
2022-09-04T07:41:44.191Z,23.47
2022-09-04T07:42:44.215Z,23.68
2022-09-04T07:43:44.677Z,23.76
2022-09-04T07:44:44.164Z,23.88
2022-09-04T07:45:44.169Z,23.78
2022-09-04T07:46:44.298Z,23.83
2022-09-04T07:47:44.139Z,23.91
2022-09-04T07:48:44.141Z,23.86
2022-09-04T07:49:44.137Z,23.59
2022-09-04T07:50:44.111Z,23.37
2022-09-04T07:51:44.649Z,23.08
2022-09-04T07:52:44.102Z,22.98
2022-09-04T07:53:44.136Z,23.02
2022-09-04T07:54:44.101Z,23.15
2022-09-04T07:55:44.083Z,23.37
2022-09-04T07:56:44.071Z,23.25
2022-09-04T07:57:44.070Z,23.40
2022-09-04T07:58:44.063Z,23.47
2022-09-04T07:59:44.075Z,23.62
2022-09-04T08:00:44.041Z,23.63
2022-09-04T08:01:44.056Z,23.54
2022-09-04T08:02:44.024Z,23.56
2022-09-04T08:03:54.322Z,23.31
2022-09-04T08:04:45.042Z,23.17
2022-09-04T08:05:44.008Z,23.03
2022-09-04T08:06:44.006Z,22.75
2022-09-04T08:07:43.992Z,22.55
2022-09-04T08:08:44.000Z,22.53
2022-09-04T08:09:43.961Z,22.60
2022-09-04T08:10:43.961Z,22.57
2022-09-04T08:11:43.955Z,22.66
2022-09-04T08:12:43.949Z,22.63
2022-09-04T08:13:43.947Z,22.73
2022-09-04T08:14:43.951Z,22.87
2022-09-04T08:15:43.975Z,23.02
2022-09-04T08:16:43.929Z,23.20
2022-09-04T08:17:43.926Z,23.31
2022-09-04T08:18:43.892Z,23.27
2022-09-04T08:19:43.896Z,23.39
2022-09-04T08:20:43.872Z,23.47
2022-09-04T08:21:43.865Z,23.41
2022-09-04T08:22:43.856Z,23.39
2022-09-04T08:23:43.858Z,23.61
2022-09-04T08:24:43.846Z,23.77
2022-09-04T08:25:43.890Z,23.96
2022-09-04T08:26:43.829Z,24.02
2022-09-04T08:27:44.408Z,24.32
2022-09-04T08:28:46.262Z,24.36
2022-09-04T08:29:44.806Z,24.55
2022-09-04T08:30:43.811Z,24.61
2022-09-04T08:31:43.789Z,24.63
2022-09-04T08:32:43.782Z,24.54
2022-09-04T08:33:43.767Z,24.78
2022-09-04T08:34:44.223Z,24.81
2022-09-04T08:35:43.748Z,24.96
2022-09-04T08:36:43.742Z,24.96
2022-09-04T08:37:43.731Z,24.93
2022-09-04T08:38:43.766Z,25.07
2022-09-04T08:39:43.757Z,24.95
2022-09-04T08:40:43.712Z,24.92
2022-09-04T08:41:43.698Z,24.85
2022-09-04T08:42:43.683Z,24.93
2022-09-04T08:43:43.693Z,24.98
2022-09-04T08:44:43.678Z,25.10
2022-09-04T08:45:43.669Z,25.11
2022-09-04T08:46:43.705Z,25.31
2022-09-04T08:47:43.645Z,25.38
2022-09-04T08:48:43.645Z,25.43
2022-09-04T08:49:43.630Z,25.53
2022-09-04T08:50:43.619Z,25.53
2022-09-04T08:51:43.634Z,25.50
2022-09-04T08:52:43.622Z,25.08
2022-09-04T08:53:43.616Z,24.85
2022-09-04T08:54:43.587Z,24.86
2022-09-04T08:55:43.578Z,24.76
2022-09-04T08:56:43.570Z,24.68
2022-09-04T08:57:43.560Z,24.47
2022-09-04T08:58:47.694Z,24.55
2022-09-04T08:59:44.552Z,24.38
2022-09-04T09:00:43.538Z,24.29
2022-09-04T09:01:43.595Z,24.26
2022-09-04T09:02:43.633Z,24.20
2022-09-04T09:03:43.518Z,24.32
2022-09-04T09:04:43.510Z,24.38
2022-09-04T09:05:43.503Z,24.33
2022-09-04T09:06:43.495Z,24.29
2022-09-04T09:07:43.480Z,24.45
2022-09-04T09:08:43.472Z,24.32
2022-09-04T09:09:43.473Z,24.40
2022-09-04T09:10:43.460Z,24.33
2022-09-04T09:11:43.453Z,24.33
2022-09-04T09:12:43.502Z,24.29
2022-09-04T09:13:43.443Z,24.33
2022-09-04T09:14:43.423Z,24.20
2022-09-04T09:15:43.419Z,24.13
2022-09-04T09:16:43.479Z,24.18
2022-09-04T09:17:43.395Z,23.98
2022-09-04T09:18:44.186Z,23.93
2022-09-04T09:19:43.379Z,24.06
2022-09-04T09:20:43.370Z,24.13
2022-09-04T09:21:43.369Z,24.08
2022-09-04T09:22:43.356Z,24.08
2022-09-04T09:23:43.355Z,24.05
2022-09-04T09:24:43.343Z,24.13
2022-09-04T09:25:44.118Z,24.18
2022-09-04T09:26:44.328Z,24.08
2022-09-04T09:27:43.314Z,24.03
2022-09-04T09:28:43.306Z,24.05
2022-09-04T09:29:43.305Z,23.95
2022-09-04T09:30:43.380Z,24.10
2022-09-04T09:31:43.279Z,24.10
2022-09-04T09:32:43.287Z,24.11
2022-09-04T09:33:43.266Z,24.10
2022-09-04T09:34:43.266Z,24.18
2022-09-04T09:35:43.250Z,24.18
2022-09-04T09:36:43.272Z,24.10
2022-09-04T09:37:43.243Z,24.01
2022-09-04T09:38:43.224Z,24.03
2022-09-04T09:39:43.322Z,23.86
2022-09-04T09:40:43.210Z,23.84
2022-09-04T09:41:43.203Z,23.74
2022-09-04T09:42:43.208Z,23.83
2022-09-04T09:43:43.198Z,23.91
2022-09-04T09:44:43.183Z,23.81
2022-09-04T09:45:43.232Z,23.96
2022-09-04T09:46:43.171Z,24.01
2022-09-04T09:47:43.163Z,24.17
2022-09-04T09:48:43.150Z,24.17
2022-09-04T09:49:43.141Z,24.16
2022-09-04T09:50:43.131Z,24.18
2022-09-04T09:51:43.143Z,23.99
2022-09-04T09:52:43.134Z,23.96
2022-09-04T09:53:47.009Z,23.88
2022-09-04T09:54:44.109Z,23.99
2022-09-04T09:55:43.103Z,24.03
2022-09-04T09:56:46.654Z,24.30
2022-09-04T09:57:44.079Z,24.36
2022-09-04T09:58:43.080Z,24.29
2022-09-04T09:59:43.079Z,24.23
2022-09-04T10:00:43.068Z,24.36
2022-09-04T10:01:43.119Z,24.40
2022-09-04T10:02:43.081Z,24.53
2022-09-04T10:03:43.043Z,24.58
2022-09-04T10:04:43.036Z,24.74
2022-09-04T10:05:43.019Z,24.77
2022-09-04T10:06:43.023Z,24.76
2022-09-04T10:07:43.004Z,24.81
2022-09-04T10:08:43.001Z,24.76
2022-09-04T10:09:43.000Z,24.63
2022-09-04T10:10:43.704Z,24.68
2022-09-04T10:11:42.972Z,24.77
2022-09-04T10:12:42.969Z,24.89
2022-09-04T10:13:42.963Z,24.70
2022-09-04T10:14:42.960Z,24.81
2022-09-04T10:15:42.944Z,25.04
2022-09-04T10:16:42.997Z,25.06
2022-09-04T10:17:42.925Z,24.91
2022-09-04T10:18:42.923Z,25.03
2022-09-04T10:19:42.912Z,25.03
2022-09-04T10:20:42.913Z,24.99
2022-09-04T10:21:42.892Z,25.11
2022-09-04T10:22:42.884Z,25.16
2022-09-04T10:23:42.879Z,25.17
2022-09-04T10:24:42.865Z,25.17
2022-09-04T10:25:42.867Z,25.10
2022-09-04T10:26:42.855Z,24.99
2022-09-04T10:27:44.087Z,25.08
2022-09-04T10:28:43.833Z,25.13
2022-09-04T10:29:42.824Z,25.21
2022-09-04T10:30:42.859Z,25.23
2022-09-04T10:31:42.823Z,25.18
2022-09-04T10:32:42.802Z,25.22
2022-09-04T10:33:42.792Z,25.18
2022-09-04T10:34:42.790Z,24.98
2022-09-04T10:35:42.780Z,24.89
2022-09-04T10:36:42.782Z,24.93
2022-09-04T10:37:42.762Z,24.96
2022-09-04T10:38:42.763Z,25.01
2022-09-04T10:39:42.842Z,25.13
2022-09-04T10:40:45.304Z,25.16
2022-09-04T10:41:44.733Z,25.23
2022-09-04T10:42:42.724Z,25.38
2022-09-04T10:43:42.709Z,25.41
2022-09-04T10:44:42.704Z,25.48
2022-09-04T10:45:42.740Z,25.59
2022-09-04T10:46:42.691Z,25.60
2022-09-04T10:47:42.686Z,25.78
2022-09-04T10:48:42.678Z,25.78
2022-09-04T10:49:42.663Z,25.88
2022-09-04T10:50:42.666Z,25.91
2022-09-04T10:51:42.647Z,25.88
2022-09-04T10:52:42.639Z,25.84
2022-09-04T10:53:42.637Z,25.73
2022-09-04T10:54:42.625Z,25.66
2022-09-04T10:55:42.627Z,25.68
2022-09-04T10:56:42.613Z,25.83
2022-09-04T10:57:42.609Z,25.81
2022-09-04T10:58:42.593Z,25.87
2022-09-04T10:59:42.583Z,25.80
2022-09-04T11:00:42.662Z,26.00
2022-09-04T11:01:42.573Z,25.95
2022-09-04T11:02:42.597Z,25.87
2022-09-04T11:03:42.555Z,25.85
2022-09-04T11:04:42.545Z,25.80
2022-09-04T11:05:43.053Z,25.80
2022-09-04T11:06:42.535Z,25.78
2022-09-04T11:07:42.523Z,25.84
2022-09-04T11:08:42.521Z,25.85
2022-09-04T11:09:43.151Z,26.02
2022-09-04T11:10:42.502Z,26.00
2022-09-04T11:11:42.506Z,25.99
2022-09-04T11:12:43.152Z,25.88
2022-09-04T11:13:42.514Z,26.07
2022-09-04T11:14:42.465Z,26.09
2022-09-04T11:15:42.471Z,26.06
2022-09-04T11:16:42.502Z,25.99
2022-09-04T11:17:42.443Z,26.03
2022-09-04T11:18:42.468Z,25.95
2022-09-04T11:19:43.162Z,25.98
2022-09-04T11:20:42.422Z,25.99
2022-09-04T11:21:42.449Z,25.95
2022-09-04T11:22:42.444Z,26.13
2022-09-04T11:23:42.468Z,26.23
2022-09-04T11:24:42.403Z,26.29
2022-09-04T11:25:42.381Z,26.41
2022-09-04T11:26:42.376Z,26.38
2022-09-04T11:27:42.369Z,26.36
2022-09-04T11:28:42.400Z,26.37
2022-09-04T11:29:42.349Z,26.44
2022-09-04T11:30:47.885Z,26.37
2022-09-04T11:31:43.364Z,26.41
2022-09-04T11:32:42.333Z,26.45
2022-09-04T11:33:42.346Z,26.41
2022-09-04T11:34:42.324Z,26.56
2022-09-04T11:35:43.241Z,26.47
2022-09-04T11:36:42.298Z,26.45
2022-09-04T11:37:42.291Z,26.51
2022-09-04T11:38:42.288Z,26.56
2022-09-04T11:39:42.322Z,26.48
2022-09-04T11:40:42.275Z,26.48
2022-09-04T11:41:42.259Z,26.36
2022-09-04T11:42:42.249Z,26.28
2022-09-04T11:43:42.241Z,26.31
2022-09-04T11:44:42.238Z,26.33
2022-09-04T11:45:42.289Z,26.33
2022-09-04T11:46:42.235Z,26.28
2022-09-04T11:47:42.212Z,26.29
2022-09-04T11:48:42.230Z,26.33
2022-09-04T11:49:42.198Z,26.28
2022-09-04T11:50:42.184Z,26.25
2022-09-04T11:51:42.180Z,26.31
2022-09-04T11:52:42.170Z,26.43
2022-09-04T11:53:42.163Z,26.45
2022-09-04T11:54:42.160Z,26.59
2022-09-04T11:55:42.153Z,26.51
2022-09-04T11:56:42.131Z,26.51
2022-09-04T11:57:43.131Z,26.62
2022-09-04T11:58:42.125Z,26.58
2022-09-04T11:59:42.124Z,26.68
2022-09-04T12:00:42.106Z,26.68
2022-09-04T12:01:47.065Z,26.47
2022-09-04T12:02:44.090Z,26.41
2022-09-04T12:03:42.126Z,26.29
2022-09-04T12:04:42.097Z,26.36
2022-09-04T12:05:42.064Z,26.33
2022-09-04T12:06:42.066Z,26.25
2022-09-04T12:07:43.453Z,26.33
2022-09-04T12:08:43.051Z,26.44
2022-09-04T12:09:42.045Z,26.43
2022-09-04T12:10:42.027Z,26.53
2022-09-04T12:11:42.642Z,26.48
2022-09-04T12:12:42.011Z,26.58
2022-09-04T12:13:42.021Z,26.60
2022-09-04T12:14:42.008Z,26.58
2022-09-04T12:15:41.984Z,26.55
2022-09-04T12:16:42.026Z,26.60
2022-09-04T12:17:41.969Z,26.58
2022-09-04T12:18:41.960Z,26.73
2022-09-04T12:19:41.977Z,26.77
2022-09-04T12:20:41.960Z,26.85
2022-09-04T12:21:41.966Z,26.83
2022-09-04T12:22:41.940Z,26.93
2022-09-04T12:23:41.980Z,26.89
2022-09-04T12:24:41.925Z,27.02
2022-09-04T12:25:41.947Z,26.97
2022-09-04T12:26:51.726Z,27.07
2022-09-04T12:27:42.892Z,27.14
2022-09-04T12:28:41.884Z,27.07
2022-09-04T12:29:42.766Z,27.18
2022-09-04T12:30:41.873Z,27.27
2022-09-04T12:31:41.911Z,27.26
2022-09-04T12:32:41.854Z,27.35
2022-09-04T12:33:41.887Z,27.33
2022-09-04T12:34:41.836Z,27.36
2022-09-04T12:35:41.836Z,27.32
2022-09-04T12:36:41.828Z,27.20
2022-09-04T12:37:42.693Z,27.26
2022-09-04T12:38:41.814Z,27.14
2022-09-04T12:39:41.885Z,27.11
2022-09-04T12:40:41.809Z,27.17
2022-09-04T12:41:41.789Z,26.92
2022-09-04T12:42:41.789Z,26.88
2022-09-04T12:43:41.777Z,26.68
2022-09-04T12:44:41.768Z,26.77
2022-09-04T12:45:41.803Z,26.75
2022-09-04T12:46:41.753Z,26.88
2022-09-04T12:47:41.738Z,26.89
2022-09-04T12:48:41.737Z,26.88
2022-09-04T12:49:41.736Z,26.90
2022-09-04T12:50:42.278Z,26.89
2022-09-04T12:51:41.708Z,27.02
2022-09-04T12:52:41.696Z,26.97
2022-09-04T12:53:41.702Z,26.99